Time;durP1;ratioP1;P1;durP2;ratioP2;P2;SDS_P1;SDS_P2;PMS_P1;PMS_P2;Temp;Humidity;BMP_temperature;BMP_pressure;BME280_temperature;BME280_humidity;BME280_pressure;Samples;Min_cycle;Max_cycle;Signal;HPM_P1;HPM_P2
2022/08/05 00:02:21;;;;;;;5.10;2.72;;;24.80;99.90;;;;;;4986393;28;20276;-73
2022/08/05 00:04:47;;;;;;;3.60;2.58;;;24.70;99.90;;;;;;4985019;28;20283;-73
2022/08/05 00:07:14;;;;;;;3.33;2.63;;;24.70;99.90;;;;;;4987071;28;20235;-69
2022/08/05 00:09:40;;;;;;;3.60;2.80;;;24.70;99.90;;;;;;4988990;28;20184;-70
2022/08/05 00:12:10;;;;;;;3.53;2.40;;;24.70;99.90;;;;;;4980345;28;20256;-73
2022/08/05 00:14:38;;;;;;;4.57;2.35;;;24.60;99.90;;;;;;4985158;28;20203;-73
2022/08/05 00:17:04;;;;;;;3.63;2.45;;;24.60;99.90;;;;;;4982845;28;20180;-71
2022/08/05 00:19:32;;;;;;;3.58;2.60;;;24.60;99.90;;;;;;4986782;28;20188;-71
2022/08/05 00:22:01;;;;;;;7.95;2.72;;;24.60;99.90;;;;;;4986505;28;20207;-74
2022/08/05 00:24:26;;;;;;;4.55;2.53;;;24.60;99.90;;;;;;4982610;28;20175;-72
2022/08/05 00:26:54;;;;;;;3.10;2.40;;;24.60;99.90;;;;;;4982222;28;21384;-73
2022/08/05 00:29:23;;;;;;;3.58;2.63;;;24.50;99.90;;;;;;4984836;28;20223;-72
2022/08/05 00:31:49;;;;;;;5.10;2.70;;;24.50;99.90;;;;;;4981528;28;20259;-70
2022/08/05 00:34:14;;;;;;;3.65;2.38;;;24.50;99.90;;;;;;4986910;28;20187;-72
2022/08/05 00:36:40;;;;;;;3.58;2.60;;;24.50;99.90;;;;;;4986735;28;20179;-69
2022/08/05 00:39:06;;;;;;;5.40;2.55;;;24.50;99.90;;;;;;4988880;28;20191;-69
2022/08/05 00:41:36;;;;;;;3.00;2.70;;;24.50;99.90;;;;;;4990257;28;20184;-72
2022/08/05 00:44:02;;;;;;;3.95;2.75;;;24.50;99.90;;;;;;4991699;28;20219;-71
2022/08/05 00:46:29;;;;;;;3.97;2.67;;;24.40;99.90;;;;;;4991748;28;20200;-73
2022/08/05 00:48:55;;;;;;;3.50;2.55;;;24.40;99.90;;;;;;4997145;28;20191;-71
2022/08/05 00:51:21;;;;;;;3.40;2.35;;;24.40;99.90;;;;;;4993278;28;20222;-72
2022/08/05 00:53:47;;;;;;;4.53;2.67;;;24.40;99.90;;;;;;4988411;28;20275;-72
2022/08/05 00:56:17;;;;;;;4.07;2.55;;;24.30;99.90;;;;;;4985191;28;20259;-71
2022/08/05 00:58:45;;;;;;;3.28;2.95;;;24.30;99.90;;;;;;4992885;28;20180;-69
2022/08/05 01:01:11;;;;;;;5.43;2.58;;;24.30;99.90;;;;;;4985636;28;20235;-71
2022/08/05 01:03:37;;;;;;;3.47;2.63;;;24.30;99.90;;;;;;4984096;28;20208;-72
2022/08/05 01:06:03;;;;;;;3.33;2.45;;;24.20;99.90;;;;;;4985006;28;20161;-69
2022/08/05 01:08:29;;;;;;;4.28;2.75;;;24.20;99.90;;;;;;4991092;28;20228;-72
2022/08/05 01:10:59;;;;;;;3.10;2.55;;;24.10;99.90;;;;;;4987917;28;20191;-71
2022/08/05 01:14:02;;;;;;;3.22;2.55;;;24.10;99.90;;;;;;4980160;28;20199;-72
2022/08/05 01:16:53;;;;;;;4.68;2.67;;;24.10;99.90;;;;;;4990256;28;20297;-72
2022/08/05 01:19:21;;;;;;;3.55;2.70;;;24.00;99.90;;;;;;4986749;28;20208;-72
2022/08/05 01:21:50;;;;;;;2.80;2.50;;;24.00;99.90;;;;;;4987913;28;20258;-72
2022/08/05 01:24:37;;;;;;;5.65;3.17;;;23.90;99.90;;;;;;4984887;28;20179;-72
2022/08/05 01:27:24;;;;;;;3.42;2.90;;;23.90;99.90;;;;;;5004749;28;20202;-72
2022/08/05 01:29:55;;;;;;;4.68;2.55;;;23.80;99.90;;;;;;5003598;28;20296;-73
2022/08/05 01:32:25;;;;;;;4.78;2.83;;;23.80;99.90;;;;;;4982985;28;20265;-73
2022/08/05 01:34:59;;;;;;;3.63;2.88;;;23.70;99.90;;;;;;5000659;28;20180;-70
2022/08/05 01:37:33;;;;;;;4.18;2.80;;;23.60;99.90;;;;;;4984553;28;20215;-73
2022/08/05 01:40:00;;;;;;;3.72;2.75;;;23.60;99.90;;;;;;4978525;28;20238;-71
2022/08/05 01:42:30;;;;;;;4.20;2.97;;;23.50;99.90;;;;;;4987007;28;20473;-70
2022/08/05 01:44:59;;;;;;;3.97;2.85;;;23.50;99.90;;;;;;4988205;28;20273;-73
2022/08/05 01:47:30;;;;;;;3.95;2.50;;;23.50;99.90;;;;;;4984961;28;20188;-72
2022/08/05 01:49:57;;;;;;;3.10;2.40;;;23.40;99.90;;;;;;4983262;28;20191;-72
2022/08/05 01:52:28;;;;;;;3.10;2.53;;;23.40;99.90;;;;;;4983555;28;20188;-72
2022/08/05 01:55:03;;;;;;;2.38;2.03;;;23.40;99.90;;;;;;4980512;28;20184;-72
2022/08/05 01:57:38;;;;;;;3.20;2.65;;;23.30;99.90;;;;;;4982986;28;20186;-70
2022/08/05 02:00:06;;;;;;;3.08;2.60;;;23.30;99.90;;;;;;4987748;28;20210;-72
2022/08/05 02:02:38;;;;;;;3.70;2.60;;;23.30;99.90;;;;;;4990749;28;20377;-73
2022/08/05 02:05:07;;;;;;;6.32;2.90;;;23.30;99.90;;;;;;4984110;28;20195;-69
2022/08/05 02:07:33;;;;;;;3.83;3.03;;;23.30;99.90;;;;;;4981642;28;20196;-71
2022/08/05 02:10:03;;;;;;;7.38;3.20;;;23.30;99.90;;;;;;4990748;28;20211;-73
2022/08/05 02:12:43;;;;;;;3.42;2.47;;;23.20;99.90;;;;;;4993480;28;20343;-72
2022/08/05 02:15:14;;;;;;;3.38;2.75;;;23.20;99.90;;;;;;4992297;28;20203;-68
2022/08/05 02:18:03;;;;;;;4.93;3.40;;;23.20;99.90;;;;;;4994597;28;20184;-74
2022/08/05 02:20:50;;;;;;;3.08;2.78;;;23.10;99.90;;;;;;4983938;28;20180;-71
2022/08/05 02:23:25;;;;;;;4.03;2.65;;;23.00;99.90;;;;;;4986946;28;21452;-73
2022/08/05 02:25:51;;;;;;;3.42;2.53;;;22.90;99.90;;;;;;4990496;28;20211;-73
2022/08/05 02:28:24;;;;;;;5.38;2.92;;;22.90;99.90;;;;;;4986983;28;20179;-74
2022/08/05 02:30:57;;;;;;;4.38;2.60;;;22.80;99.90;;;;;;4982994;28;20204;-74
2022/08/05 02:33:24;;;;;;;3.75;2.63;;;22.80;99.90;;;;;;4987165;28;20258;-71
2022/08/05 02:35:56;;;;;;;4.55;2.97;;;22.70;99.90;;;;;;4987257;28;20194;-75
2022/08/05 02:38:23;;;;;;;3.50;2.60;;;22.70;99.90;;;;;;4987256;28;20184;-73
2022/08/05 02:40:52;;;;;;;4.25;2.80;;;22.60;99.90;;;;;;4984944;28;20195;-74
2022/08/05 02:43:20;;;;;;;6.25;3.00;;;22.60;99.90;;;;;;4984981;28;20196;-73
2022/08/05 02:45:47;;;;;;;5.28;3.20;;;22.50;99.90;;;;;;4986417;28;20196;-73
2022/08/05 02:48:16;;;;;;;4.88;3.40;;;22.50;99.90;;;;;;4980602;28;20180;-73
2022/08/05 02:50:45;;;;;;;4.88;2.80;;;22.40;99.90;;;;;;4985046;28;20202;-73
2022/08/05 02:53:13;;;;;;;3.78;2.65;;;22.40;99.90;;;;;;4987151;28;20551;-73
2022/08/05 02:55:44;;;;;;;6.32;2.88;;;22.30;99.90;;;;;;4987306;28;20188;-70
2022/08/05 02:58:14;;;;;;;3.65;2.75;;;22.30;99.90;;;;;;4989730;28;20187;-73
2022/08/05 03:00:42;;;;;;;4.85;3.22;;;22.30;99.90;;;;;;4983865;28;20199;-72
2022/08/05 03:03:07;;;;;;;5.53;3.00;;;22.30;99.90;;;;;;4983856;28;20196;-73
2022/08/05 03:05:36;;;;;;;5.13;3.00;;;22.30;99.90;;;;;;4988042;28;20253;-66
2022/08/05 03:08:02;;;;;;;4.47;3.20;;;22.30;99.90;;;;;;4996631;28;20223;-71
2022/08/05 03:10:27;;;;;;;6.70;3.35;;;22.20;99.90;;;;;;4983391;28;20180;-72
2022/08/05 03:12:53;;;;;;;3.38;2.72;;;22.20;99.90;;;;;;4983356;28;20330;-71
2022/08/05 03:15:21;;;;;;;4.05;3.40;;;22.20;99.90;;;;;;4982647;28;20191;-72
2022/08/05 03:17:47;;;;;;;6.80;3.88;;;22.20;99.90;;;;;;4980997;28;20203;-73
2022/08/05 03:20:13;;;;;;;5.68;4.22;;;22.10;99.90;;;;;;4985888;28;20180;-71
2022/08/05 03:22:40;;;;;;;8.10;4.20;;;22.10;99.90;;;;;;4988397;28;20273;-72
2022/08/05 03:25:07;;;;;;;6.55;4.32;;;22.10;99.90;;;;;;4987393;28;20191;-72
2022/08/05 03:27:38;;;;;;;7.57;4.47;;;22.00;99.90;;;;;;4989485;28;20194;-68
2022/08/05 03:30:06;;;;;;;5.45;4.47;;;22.00;99.90;;;;;;4988997;28;20195;-69
2022/08/05 03:32:34;;;;;;;6.13;3.97;;;21.90;99.90;;;;;;4989176;28;20184;-69
2022/08/05 03:35:00;;;;;;;7.32;4.22;;;21.90;99.90;;;;;;4989855;28;20270;-72
2022/08/05 03:37:26;;;;;;;5.15;4.38;;;21.80;99.90;;;;;;4990500;28;20188;-72
2022/08/05 03:39:55;;;;;;;6.47;3.97;;;21.80;99.90;;;;;;4988784;28;20192;-69
2022/08/05 03:42:20;;;;;;;6.25;4.07;;;21.70;99.90;;;;;;4990947;28;20221;-67
2022/08/05 03:44:46;;;;;;;6.22;3.92;;;21.70;99.90;;;;;;4990901;28;20191;-72
2022/08/05 03:47:14;;;;;;;5.55;3.42;;;21.70;99.90;;;;;;4986802;28;20175;-70
2022/08/05 03:49:39;;;;;;;4.78;3.47;;;21.70;99.90;;;;;;4989102;28;20245;-75
2022/08/05 03:52:10;;;;;;;5.15;3.60;;;21.60;99.90;;;;;;4981430;28;20208;-74
2022/08/05 03:54:53;;;;;;;4.32;3.60;;;21.70;99.90;;;;;;4992018;28;20206;-75
2022/08/05 03:57:24;;;;;;;4.28;3.22;;;21.60;99.90;;;;;;4979892;28;20199;-72
2022/08/05 04:00:17;;;;;;;7.15;3.72;;;21.60;99.90;;;;;;4979896;28;20189;-71
2022/08/05 04:02:48;;;;;;;5.28;3.17;;;21.60;99.90;;;;;;4977758;28;20212;-70
2022/08/05 04:05:17;;;;;;;4.30;3.45;;;21.50;99.90;;;;;;4978805;28;20210;-71
2022/08/05 04:07:44;;;;;;;5.30;3.75;;;21.50;99.90;;;;;;4980108;28;20179;-71
2022/08/05 04:10:12;;;;;;;4.20;3.55;;;21.50;99.90;;;;;;4980882;28;20196;-71
2022/08/05 04:12:38;;;;;;;5.30;3.65;;;21.40;99.90;;;;;;4993623;28;20207;-72
2022/08/05 04:15:06;;;;;;;5.93;3.97;;;21.40;99.90;;;;;;4997589;28;20181;-70
2022/08/05 04:17:34;;;;;;;4.65;4.03;;;21.30;99.90;;;;;;4989249;28;20215;-68
2022/08/05 04:20:02;;;;;;;5.00;3.53;;;21.30;99.90;;;;;;4992296;28;20199;-70
2022/08/05 04:22:30;;;;;;;4.85;4.22;;;21.30;99.90;;;;;;4982920;28;20234;-69
2022/08/05 04:24:58;;;;;;;7.50;4.28;;;21.20;99.90;;;;;;4990510;28;20244;-70
2022/08/05 04:27:24;;;;;;;5.28;4.35;;;21.20;99.90;;;;;;4986915;28;20202;-69
2022/08/05 04:29:50;;;;;;;6.05;4.70;;;21.20;99.90;;;;;;4990030;28;20267;-70
2022/08/05 04:32:20;;;;;;;7.00;5.15;;;21.20;99.90;;;;;;4982583;28;20210;-70
2022/08/05 04:34:48;;;;;;;6.07;4.60;;;21.20;99.90;;;;;;4989967;28;20188;-68
2022/08/05 04:37:13;;;;;;;5.85;4.32;;;21.20;99.90;;;;;;4991754;28;20180;-85
2022/08/05 04:39:41;;;;;;;6.47;3.97;;;21.10;99.90;;;;;;4988355;28;20235;-79
2022/08/05 04:42:09;;;;;;;6.32;4.15;;;21.10;99.90;;;;;;4991826;28;20206;-82
2022/08/05 04:44:38;;;;;;;5.07;4.00;;;21.10;99.90;;;;;;4993304;28;20223;-81
2022/08/05 04:47:04;;;;;;;7.22;3.88;;;21.10;99.90;;;;;;4989940;28;20324;-77
2022/08/05 04:49:29;;;;;;;7.20;4.78;;;21.10;99.90;;;;;;4988049;28;20183;-79
2022/08/05 04:51:57;;;;;;;5.20;4.00;;;21.20;99.90;;;;;;5000573;28;20234;-83
2022/08/05 04:54:25;;;;;;;5.47;4.15;;;21.20;99.90;;;;;;4994000;28;20192;-81
2022/08/05 04:56:52;;;;;;;5.38;3.90;;;21.20;99.90;;;;;;4992424;28;20262;-81
2022/08/05 04:59:21;;;;;;;6.50;4.07;;;21.20;99.90;;;;;;4993666;28;20194;-81
2022/08/05 05:01:48;;;;;;;6.13;4.55;;;21.20;99.90;;;;;;4991753;28;20207;-80
2022/08/05 05:04:16;;;;;;;6.68;4.45;;;21.20;99.90;;;;;;4991839;28;20195;-80
2022/08/05 05:06:44;;;;;;;4.88;3.78;;;21.20;99.90;;;;;;4993509;28;20180;-79
2022/08/05 05:09:11;;;;;;;6.53;4.78;;;21.20;99.90;;;;;;4995729;28;20381;-79
2022/08/05 05:11:37;;;;;;;6.80;4.45;;;21.20;99.90;;;;;;4991840;28;20204;-78
2022/08/05 05:14:05;;;;;;;7.13;4.28;;;21.20;99.90;;;;;;4991487;28;20183;-80
2022/08/05 05:16:33;;;;;;;5.95;5.13;;;21.20;99.90;;;;;;5010068;28;20238;-81
2022/08/05 05:18:58;;;;;;;8.40;5.28;;;21.20;99.90;;;;;;4994044;28;20260;-78
2022/08/05 05:21:26;;;;;;;6.57;4.35;;;21.20;99.90;;;;;;4991813;28;20207;-80
2022/08/05 05:23:54;;;;;;;8.02;5.80;;;21.20;99.90;;;;;;4988859;28;20231;-79
2022/08/05 05:26:20;;;;;;;5.25;4.45;;;21.20;99.90;;;;;;4989373;28;20210;-72
2022/08/05 05:28:48;;;;;;;6.97;4.35;;;21.20;99.90;;;;;;4990356;28;20342;-71
2022/08/05 05:31:14;;;;;;;7.00;4.63;;;21.20;99.90;;;;;;4988569;28;20180;-72
2022/08/05 05:33:39;;;;;;;7.63;4.88;;;21.20;99.90;;;;;;4994317;28;21063;-72
2022/08/05 05:36:05;;;;;;;7.30;4.57;;;21.20;99.90;;;;;;4996526;28;20208;-71
2022/08/05 05:38:31;;;;;;;5.75;4.30;;;21.20;99.90;;;;;;4996892;28;20242;-72
2022/08/05 05:40:58;;;;;;;7.50;4.93;;;21.20;99.90;;;;;;4990256;28;20214;-72
2022/08/05 05:43:24;;;;;;;6.90;5.13;;;21.20;99.90;;;;;;4997527;28;20207;-72
2022/08/05 05:45:52;;;;;;;6.50;5.85;;;21.20;99.90;;;;;;5001458;28;20203;-70
2022/08/05 05:48:17;;;;;;;7.20;6.32;;;21.20;99.90;;;;;;4992598;28;20252;-73
2022/08/05 05:50:45;;;;;;;7.10;5.65;;;21.20;99.90;;;;;;5000351;28;20187;-72
2022/08/05 05:53:16;;;;;;;6.88;5.53;;;21.20;99.90;;;;;;4994489;28;20200;-73
2022/08/05 05:55:41;;;;;;;6.53;5.50;;;21.30;99.90;;;;;;4991730;28;20175;-72
2022/08/05 05:58:07;;;;;;;6.47;5.82;;;21.30;99.90;;;;;;4996269;28;20187;-71
2022/08/05 06:00:35;;;;;;;6.53;5.93;;;21.40;99.90;;;;;;4994008;28;20210;-70
2022/08/05 06:03:02;;;;;;;6.85;6.05;;;21.40;99.90;;;;;;5000343;28;20292;-73
2022/08/05 06:05:29;;;;;;;8.82;6.40;;;21.40;99.90;;;;;;4993191;28;20269;-73
2022/08/05 06:07:55;;;;;;;8.57;6.68;;;21.40;99.90;;;;;;4992298;28;20199;-74
2022/08/05 06:10:23;;;;;;;10.02;6.68;;;21.50;99.90;;;;;;4994957;28;20214;-74
2022/08/05 06:12:49;;;;;;;7.38;6.68;;;21.50;99.90;;;;;;4996038;28;20234;-73
2022/08/05 06:15:14;;;;;;;7.50;6.78;;;21.50;99.90;;;;;;4994695;28;20180;-73
2022/08/05 06:17:40;;;;;;;7.68;6.95;;;21.60;99.90;;;;;;4992904;28;20179;-74
2022/08/05 06:20:11;;;;;;;7.60;6.90;;;21.70;99.90;;;;;;4991244;28;20203;-74
2022/08/05 06:22:36;;;;;;;7.32;6.53;;;21.80;99.90;;;;;;4992546;28;20202;-74
2022/08/05 06:25:07;;;;;;;6.90;6.25;;;21.90;99.90;;;;;;4989440;28;20260;-74
2022/08/05 06:27:33;;;;;;;8.13;6.85;;;22.00;99.90;;;;;;4986730;28;20175;-73
2022/08/05 06:30:01;;;;;;;10.15;7.65;;;22.10;99.90;;;;;;4994007;28;20195;-74
2022/08/05 06:32:27;;;;;;;8.38;7.50;;;22.20;99.90;;;;;;4988663;28;20218;-73
2022/08/05 06:35:02;;;;;;;10.07;8.65;;;22.20;99.90;;;;;;4990337;28;20196;-74
2022/08/05 06:37:27;;;;;;;11.23;10.05;;;22.40;99.90;;;;;;4991562;28;20237;-73
2022/08/05 06:39:55;;;;;;;11.40;10.15;;;22.40;99.90;;;;;;4990160;28;20183;-74
2022/08/05 06:42:21;;;;;;;10.27;9.20;;;22.40;99.90;;;;;;4992066;28;20203;-74
2022/08/05 06:44:49;;;;;;;12.80;11.00;;;22.40;99.90;;;;;;4990096;28;20286;-73
2022/08/05 06:47:14;;;;;;;11.93;10.75;;;22.40;99.90;;;;;;4991194;28;20176;-72
2022/08/05 06:49:40;;;;;;;11.88;10.38;;;22.40;99.90;;;;;;4989367;28;20280;-71
2022/08/05 06:52:06;;;;;;;12.05;10.75;;;22.30;99.90;;;;;;4989372;28;20195;-73
2022/08/05 06:54:33;;;;;;;11.13;10.02;;;22.30;99.90;;;;;;4992254;28;20175;-73
2022/08/05 06:57:04;;;;;;;16.33;11.85;;;22.30;99.90;;;;;;4988276;28;20203;-73
2022/08/05 06:59:29;;;;;;;14.13;12.68;;;22.30;99.90;;;;;;4988045;28;20184;-73
2022/08/05 07:01:55;;;;;;;13.93;12.32;;;22.20;99.90;;;;;;4986877;28;20186;-72
2022/08/05 07:04:21;;;;;;;14.80;13.30;;;22.20;99.90;;;;;;4991338;28;20251;-74
2022/08/05 07:06:48;;;;;;;13.93;12.48;;;22.20;99.90;;;;;;4988055;28;20199;-73
2022/08/05 07:09:14;;;;;;;15.57;13.80;;;22.20;99.90;;;;;;4989656;28;20285;-73
2022/08/05 07:11:39;;;;;;;14.45;12.95;;;22.20;99.90;;;;;;4989814;28;20176;-72
2022/08/05 07:16:58;;;;;;;13.18;11.88;;;22.10;99.90;;;;;;4990627;28;20300;-73
2022/08/05 07:19:26;;;;;;;15.85;14.27;;;22.10;99.90;;;;;;4990762;28;20188;-74
2022/08/05 07:21:52;;;;;;;13.80;12.48;;;22.10;99.90;;;;;;4988761;28;20214;-72
2022/08/05 07:24:17;;;;;;;15.02;13.48;;;22.10;99.90;;;;;;4984690;28;20200;-72
2022/08/05 07:26:47;;;;;;;13.30;12.00;;;22.10;99.90;;;;;;4989424;28;20175;-73
2022/08/05 07:29:15;;;;;;;14.70;13.25;;;22.10;99.90;;;;;;4992897;28;20192;-71
2022/08/05 07:31:41;;;;;;;13.90;12.43;;;22.00;99.90;;;;;;4988309;28;20176;-74
2022/08/05 07:34:07;;;;;;;13.57;12.25;;;22.10;99.90;;;;;;4988973;28;20221;-72
2022/08/05 07:36:35;;;;;;;12.90;11.65;;;22.10;99.90;;;;;;4989819;28;20207;-73
2022/08/05 07:39:07;;;;;;;16.33;14.63;;;22.10;99.90;;;;;;4989330;28;20275;-72
2022/08/05 07:41:35;;;;;;;15.07;13.57;;;22.10;99.90;;;;;;4991519;28;20188;-73
2022/08/05 07:44:02;;;;;;;14.68;13.25;;;22.10;99.90;;;;;;4991368;28;20263;-73
2022/08/05 07:46:32;;;;;;;14.65;13.27;;;22.20;99.90;;;;;;4991438;28;20206;-72
2022/08/05 07:49:00;;;;;;;14.07;12.73;;;22.20;99.90;;;;;;4990585;28;20187;-73
2022/08/05 07:51:26;;;;;;;14.90;13.48;;;22.30;99.90;;;;;;4990082;28;20241;-74
2022/08/05 07:53:51;;;;;;;14.63;13.23;;;22.40;99.90;;;;;;4990675;28;20216;-74
2022/08/05 07:56:17;;;;;;;13.02;11.70;;;22.40;99.90;;;;;;4989983;28;20191;-73
2022/08/05 07:58:43;;;;;;;13.63;12.32;;;22.50;99.90;;;;;;4989582;28;20193;-74
2022/08/05 08:01:11;;;;;;;13.20;11.88;;;22.60;99.90;;;;;;4988036;28;20179;-74
2022/08/05 08:03:38;;;;;;;13.13;11.82;;;22.60;99.90;;;;;;4988124;28;20263;-73
2022/08/05 08:06:07;;;;;;;13.63;12.23;;;22.70;99.90;;;;;;4991269;28;20235;-74
2022/08/05 08:08:32;;;;;;;12.85;11.52;;;22.70;99.90;;;;;;4986271;28;20176;-73
2022/08/05 08:11:02;;;;;;;13.43;12.05;;;22.70;99.90;;;;;;4988538;28;20195;-74
2022/08/05 08:13:31;;;;;;;12.40;11.10;;;22.70;99.90;;;;;;4990403;28;20202;-74
2022/08/05 08:16:03;;;;;;;13.02;11.50;;;22.70;99.90;;;;;;4990414;28;20314;-76
2022/08/05 08:18:31;;;;;;;14.80;13.13;;;22.70;99.90;;;;;;4991620;28;20211;-76
2022/08/05 08:20:59;;;;;;;15.63;13.48;;;22.80;99.90;;;;;;4989981;28;20259;-73
2022/08/05 08:23:27;;;;;;;16.75;14.95;;;22.80;99.90;;;;;;4989305;28;20208;-74
2022/08/05 08:25:55;;;;;;;16.25;13.70;;;22.80;99.90;;;;;;4989544;28;20322;-74
2022/08/05 08:28:23;;;;;;;17.42;15.52;;;22.80;99.90;;;;;;4989135;28;20238;-75
2022/08/05 08:30:48;;;;;;;17.92;15.73;;;22.70;99.90;;;;;;4986973;28;20212;-73
2022/08/05 08:33:14;;;;;;;16.25;14.00;;;22.70;99.90;;;;;;4991179;28;20192;-74
2022/08/05 08:35:42;;;;;;;18.17;14.98;;;22.70;99.90;;;;;;4988796;28;20211;-73
2022/08/05 08:38:11;;;;;;;19.67;15.57;;;22.60;99.90;;;;;;4988631;28;20188;-74
2022/08/05 08:40:39;;;;;;;19.05;16.20;;;22.60;99.90;;;;;;5007903;28;20259;-75
2022/08/05 08:43:05;;;;;;;19.65;15.35;;;22.60;99.90;;;;;;4987441;28;20208;-74
2022/08/05 08:45:36;;;;;;;17.30;15.23;;;22.60;99.90;;;;;;4986249;28;20180;-74
2022/08/05 08:48:05;;;;;;;23.00;16.63;;;22.60;99.90;;;;;;4988129;28;20180;-74
2022/08/05 08:50:34;;;;;;;23.05;18.00;;;22.60;99.90;;;;;;4988408;28;20250;-74
2022/08/05 08:53:05;;;;;;;19.00;15.75;;;22.60;99.90;;;;;;4986242;28;20200;-75
2022/08/05 08:55:35;;;;;;;18.73;15.52;;;22.50;99.90;;;;;;4990719;28;20227;-77
2022/08/05 08:58:01;;;;;;;20.98;16.75;;;22.50;99.90;;;;;;4990956;28;20183;-75
2022/08/05 09:00:28;;;;;;;21.08;16.27;;;22.50;99.90;;;;;;4991195;28;20208;-71
2022/08/05 09:02:54;;;;;;;18.90;15.13;;;22.50;99.90;;;;;;4987902;28;20192;-75
2022/08/05 09:05:20;;;;;;;20.27;17.23;;;22.40;99.90;;;;;;4992567;28;20183;-76
2022/08/05 09:07:46;;;;;;;18.15;15.10;;;22.50;99.90;;;;;;4992308;28;20208;-76
2022/08/05 09:10:12;;;;;;;17.30;14.55;;;22.50;99.90;;;;;;4992855;28;20278;-74
2022/08/05 09:12:41;;;;;;;24.10;19.23;;;22.40;99.90;;;;;;4991538;28;20199;-75
2022/08/05 09:15:07;;;;;;;22.17;18.27;;;22.40;99.90;;;;;;4992670;28;20199;-75
2022/08/05 09:17:33;;;;;;;21.48;18.42;;;22.40;99.90;;;;;;4992822;28;20199;-74
2022/08/05 09:20:02;;;;;;;22.30;18.73;;;22.50;99.90;;;;;;4989540;28;20207;-74
2022/08/05 09:22:28;;;;;;;22.30;18.48;;;22.50;99.90;;;;;;4990859;28;20196;-74
2022/08/05 09:25:04;;;;;;;20.85;17.40;;;22.50;99.90;;;;;;4988968;28;20207;-74
2022/08/05 09:27:33;;;;;;;19.58;17.08;;;22.60;99.90;;;;;;4992320;28;20219;-74
2022/08/05 09:29:59;;;;;;;17.98;16.05;;;22.60;99.90;;;;;;4993398;28;20187;-77
2022/08/05 09:32:37;;;;;;;19.52;17.40;;;22.60;99.90;;;;;;4990265;28;20207;-74
2022/08/05 09:35:16;;;;;;;19.92;17.88;;;22.80;99.90;;;;;;4993885;28;20210;-73
2022/08/05 09:37:55;;;;;;;22.63;19.45;;;22.80;99.90;;;;;;4992841;28;20180;-75
2022/08/05 09:40:43;;;;;;;19.48;17.38;;;22.80;99.90;;;;;;4992612;28;20180;-75
2022/08/05 09:43:36;;;;;;;25.63;21.73;;;22.80;99.90;;;;;;4987404;28;20192;-75
2022/08/05 09:46:05;;;;;;;24.45;19.85;;;22.90;99.90;;;;;;4993082;28;20234;-75
2022/08/05 09:48:34;;;;;;;24.77;22.08;;;22.90;99.90;;;;;;4985798;28;20176;-75
2022/08/05 09:51:05;;;;;;;27.90;24.83;;;22.90;99.90;;;;;;4994516;28;20204;-74
2022/08/05 09:53:54;;;;;;;30.80;26.73;;;22.90;99.90;;;;;;4988990;28;20199;-73
2022/08/05 09:56:28;;;;;;;25.80;22.85;;;22.80;99.90;;;;;;4988935;28;20242;-72
2022/08/05 09:58:57;;;;;;;30.70;26.58;;;22.80;99.90;;;;;;4991849;28;20266;-73
2022/08/05 10:01:23;;;;;;;24.92;22.38;;;22.70;99.90;;;;;;4996159;28;20198;-75
2022/08/05 10:03:59;;;;;;;26.60;23.90;;;22.60;99.90;;;;;;4990611;28;20303;-73
2022/08/05 10:06:27;;;;;;;27.55;24.65;;;22.50;99.90;;;;;;4996833;28;20239;-73
2022/08/05 10:09:08;;;;;;;30.98;27.50;;;22.50;99.90;;;;;;4989983;28;20188;-75
2022/08/05 10:11:33;;;;;;;26.52;23.55;;;22.50;99.90;;;;;;4987027;28;20183;-73
2022/08/05 10:14:19;;;;;;;27.38;24.48;;;22.40;99.90;;;;;;4990794;28;20195;-74
2022/08/05 10:16:45;;;;;;;26.40;23.70;;;22.40;99.90;;;;;;4988947;28;20215;-73
2022/08/05 10:19:12;;;;;;;25.38;22.77;;;22.30;99.90;;;;;;4993886;28;20191;-73
2022/08/05 10:21:38;;;;;;;23.63;21.23;;;22.20;99.90;;;;;;4988017;28;20187;-73
2022/08/05 10:24:05;;;;;;;23.60;21.20;;;22.10;99.90;;;;;;4989997;28;20220;-73
2022/08/05 10:26:32;;;;;;;23.30;20.88;;;22.10;99.90;;;;;;4987760;28;20172;-74
2022/08/05 10:29:01;;;;;;;21.52;18.25;;;22.00;99.90;;;;;;4988738;28;20219;-74
2022/08/05 10:31:27;;;;;;;21.63;19.27;;;22.00;99.90;;;;;;4990955;28;20188;-75
2022/08/05 10:33:52;;;;;;;17.40;15.60;;;22.00;99.90;;;;;;4990881;28;20179;-75
2022/08/05 10:36:21;;;;;;;15.15;13.63;;;21.90;99.90;;;;;;4986502;28;20180;-76
2022/08/05 10:38:50;;;;;;;14.05;12.65;;;21.90;99.90;;;;;;5001912;28;20773;-74
2022/08/05 10:41:29;;;;;;;15.75;13.40;;;21.80;99.90;;;;;;4985259;28;20205;-74
2022/08/05 10:44:00;;;;;;;10.82;9.73;;;21.70;99.90;;;;;;4984821;28;20276;-75
2022/08/05 10:46:43;;;;;;;12.43;9.77;;;21.70;99.90;;;;;;4988975;28;20195;-75
2022/08/05 10:49:09;;;;;;;11.05;10.05;;;21.60;99.90;;;;;;4990328;28;20172;-74
2022/08/05 10:52:03;;;;;;;10.70;9.60;;;21.50;99.90;;;;;;4988978;28;20190;-77
2022/08/05 10:55:12;;;;;;;11.85;10.65;;;21.40;99.90;;;;;;4987637;28;20214;-74
2022/08/05 10:57:40;;;;;;;9.57;8.68;;;21.40;99.90;;;;;;4918794;29;20312;-76
2022/08/05 11:00:21;;;;;;;11.05;9.80;;;21.30;99.90;;;;;;4916972;29;20209;-77
2022/08/05 11:03:05;;;;;;;7.53;6.82;;;21.20;99.90;;;;;;4967722;28;20203;-75
2022/08/05 11:05:33;;;;;;;7.55;6.78;;;21.20;99.90;;;;;;4997848;28;20176;-73
2022/08/05 11:08:02;;;;;;;6.50;5.72;;;21.10;99.90;;;;;;4988718;28;20180;-74
2022/08/05 11:10:28;;;;;;;6.38;5.78;;;21.10;99.90;;;;;;4987280;28;20180;-74
2022/08/05 11:12:58;;;;;;;6.15;5.50;;;21.10;99.90;;;;;;4989503;28;20235;-74
2022/08/05 11:15:29;;;;;;;4.80;4.32;;;21.10;99.90;;;;;;4986584;28;20210;-74
2022/08/05 11:18:05;;;;;;;5.90;4.90;;;21.10;99.90;;;;;;4986475;28;20218;-75
2022/08/05 11:20:36;;;;;;;5.03;4.53;;;21.10;99.90;;;;;;4990508;28;20264;-76
2022/08/05 11:23:27;;;;;;;5.65;5.15;;;21.10;99.90;;;;;;4989596;28;20196;-73
2022/08/05 11:26:07;;;;;;;5.13;4.63;;;21.10;99.90;;;;;;4980970;28;20206;-76
2022/08/05 11:28:33;;;;;;;5.72;4.70;;;21.10;99.90;;;;;;4985306;28;20206;-74
2022/08/05 11:31:04;;;;;;;5.10;4.30;;;21.10;99.90;;;;;;4994988;28;20466;-75
2022/08/05 11:33:53;;;;;;;5.15;4.07;;;21.10;99.90;;;;;;4991829;28;20186;-74
2022/08/05 11:36:35;;;;;;;3.78;3.20;;;21.10;99.90;;;;;;4989350;28;20183;-75
2022/08/05 11:39:01;;;;;;;3.60;3.30;;;21.20;99.90;;;;;;4991099;28;20194;-75
2022/08/05 11:41:32;;;;;;;3.70;3.25;;;21.30;99.90;;;;;;4988745;28;20283;-75
2022/08/05 11:44:09;;;;;;;4.18;3.10;;;21.30;99.90;;;;;;4989078;28;20227;-75
2022/08/05 11:46:44;;;;;;;5.47;3.05;;;21.40;99.90;;;;;;4989871;28;20167;-76
2022/08/05 11:49:14;;;;;;;3.38;3.08;;;21.50;99.90;;;;;;4998446;28;20167;-74
2022/08/05 11:51:42;;;;;;;3.08;2.78;;;21.60;99.90;;;;;;4988828;28;20188;-75
2022/08/05 11:54:13;;;;;;;3.10;2.72;;;21.70;99.90;;;;;;4987822;28;20183;-75
2022/08/05 11:56:49;;;;;;;3.08;2.83;;;21.90;99.90;;;;;;4992706;28;20203;-75
2022/08/05 11:59:26;;;;;;;5.97;2.78;;;22.00;99.90;;;;;;4989132;28;20199;-77
2022/08/05 12:02:04;;;;;;;3.70;2.67;;;22.20;99.90;;;;;;4989721;28;20180;-75
2022/08/05 12:04:41;;;;;;;3.95;2.45;;;22.40;99.90;;;;;;4978500;28;20215;-73
2022/08/05 12:07:10;;;;;;;4.25;2.17;;;22.60;99.90;;;;;;4999343;28;20183;-74
2022/08/05 12:09:43;;;;;;;2.90;2.22;;;22.90;99.90;;;;;;4994411;28;20261;-76
2022/08/05 12:12:09;;;;;;;3.08;2.53;;;23.10;99.90;;;;;;4991133;28;20243;-77
2022/08/05 12:14:36;;;;;;;3.28;2.40;;;23.30;99.90;;;;;;4991382;28;20285;-73
2022/08/05 12:17:12;;;;;;;5.10;2.67;;;23.40;99.90;;;;;;4993177;28;20171;-74
2022/08/05 12:19:50;;;;;;;3.40;2.10;;;23.40;99.90;;;;;;4994680;28;20183;-75
2022/08/05 12:22:20;;;;;;;4.28;2.40;;;23.40;99.90;;;;;;4993399;28;20175;-76
2022/08/05 12:24:50;;;;;;;4.07;2.45;;;23.40;99.90;;;;;;4991524;28;20196;-77
2022/08/05 12:27:27;;;;;;;6.45;2.70;;;23.30;99.90;;;;;;4993980;28;20202;-76
2022/08/05 12:30:00;;;;;;;2.30;2.10;;;23.30;99.90;;;;;;4995424;28;20179;-74
2022/08/05 12:32:32;;;;;;;3.58;2.50;;;23.30;99.90;;;;;;4999454;28;20207;-73
2022/08/05 12:34:58;;;;;;;4.50;3.20;;;23.30;99.90;;;;;;4992705;28;20187;-78
2022/08/05 12:37:24;;;;;;;3.47;2.65;;;23.30;99.90;;;;;;4998623;28;20412;-75
2022/08/05 12:39:51;;;;;;;3.67;2.40;;;23.40;99.90;;;;;;5000617;28;20214;-75
2022/08/05 12:42:19;;;;;;;3.03;2.22;;;23.60;99.90;;;;;;4994715;28;20184;-76
2022/08/05 12:44:45;;;;;;;2.33;2.13;;;23.80;99.90;;;;;;4998796;28;20248;-72
2022/08/05 12:47:12;;;;;;;3.50;2.17;;;24.20;99.90;;;;;;4998616;28;20231;-72
2022/08/05 12:49:48;;;;;;;2.58;2.30;;;24.50;99.90;;;;;;4996647;28;20180;-74
2022/08/05 12:52:18;;;;;;;3.35;2.45;;;24.80;99.90;;;;;;4993435;28;20203;-72
2022/08/05 12:54:48;;;;;;;4.15;2.53;;;25.10;99.90;;;;;;4995564;28;20187;-71
2022/08/05 12:57:20;;;;;;;3.70;2.80;;;25.30;99.90;;;;;;4997060;28;20215;-67